createdAt,value
2022-10-18T00:01:01.638Z,100.00
2022-10-18T00:06:17.610Z,100.00
2022-10-18T00:08:45.621Z,100.00
2022-10-18T00:11:13.323Z,100.00
2022-10-18T00:13:41.370Z,100.00
2022-10-18T00:16:12.947Z,100.00
2022-10-18T00:18:41.513Z,100.00
2022-10-18T00:21:12.893Z,100.00
2022-10-18T00:23:43.142Z,100.00
2022-10-18T00:26:13.320Z,100.00
2022-10-18T00:28:42.095Z,100.00
2022-10-18T00:31:11.745Z,100.00
2022-10-18T00:33:40.759Z,100.00
2022-10-18T00:36:08.742Z,100.00
2022-10-18T00:38:37.600Z,100.00
2022-10-18T00:41:08.926Z,100.00
2022-10-18T00:43:53.036Z,100.00
2022-10-18T00:46:21.305Z,100.00
2022-10-18T00:48:49.944Z,100.00
2022-10-18T00:51:19.970Z,100.00
2022-10-18T00:53:49.019Z,100.00
2022-10-18T00:56:18.695Z,100.00
2022-10-18T00:58:48.650Z,100.00
2022-10-18T01:01:16.806Z,100.00
2022-10-18T01:03:44.828Z,100.00
2022-10-18T01:06:12.651Z,100.00
2022-10-18T01:08:59.160Z,100.00
2022-10-18T01:11:55.240Z,100.00
2022-10-18T01:14:35.141Z,100.00
2022-10-18T01:17:09.820Z,100.00
2022-10-18T01:20:04.480Z,100.00
2022-10-18T01:22:37.537Z,100.00
2022-10-18T01:25:21.282Z,100.00
2022-10-18T01:27:58.171Z,100.00
2022-10-18T01:30:36.881Z,100.00
2022-10-18T01:33:11.823Z,100.00
2022-10-18T01:35:43.794Z,100.00
2022-10-18T01:38:17.103Z,100.00
2022-10-18T01:40:48.658Z,100.00
2022-10-18T01:43:18.400Z,100.00
2022-10-18T01:45:48.374Z,100.00
2022-10-18T01:48:18.251Z,100.00
2022-10-18T01:50:46.305Z,100.00
2022-10-18T01:53:38.190Z,100.00
2022-10-18T01:56:19.257Z,100.00
2022-10-18T01:58:56.193Z,100.00
2022-10-18T02:01:34.450Z,100.00
2022-10-18T02:04:12.100Z,100.00
2022-10-18T02:06:46.147Z,100.00
2022-10-18T02:09:20.571Z,100.00
2022-10-18T02:11:52.242Z,100.00
2022-10-18T02:14:21.380Z,100.00
2022-10-18T02:16:54.510Z,100.00
2022-10-18T02:19:27.031Z,100.00
2022-10-18T02:21:58.203Z,100.00
2022-10-18T02:24:31.369Z,100.00
2022-10-18T02:26:59.446Z,100.00
2022-10-18T02:29:27.624Z,100.00
2022-10-18T02:32:03.449Z,100.00
2022-10-18T02:34:37.509Z,100.00
2022-10-18T02:37:06.093Z,100.00
2022-10-18T02:39:36.720Z,100.00
2022-10-18T02:42:06.739Z,100.00
2022-10-18T02:44:34.646Z,100.00
2022-10-18T02:47:05.141Z,100.00
2022-10-18T02:49:32.847Z,100.00
2022-10-18T02:52:00.821Z,100.00
2022-10-18T02:54:28.714Z,100.00
2022-10-18T02:56:56.615Z,100.00
2022-10-18T02:59:24.404Z,100.00
2022-10-18T03:01:52.408Z,100.00
2022-10-18T03:04:21.791Z,100.00
2022-10-18T03:06:49.877Z,100.00
2022-10-18T03:09:17.749Z,100.00
2022-10-18T03:11:45.606Z,100.00
2022-10-18T03:14:13.438Z,100.00
2022-10-18T03:16:41.481Z,100.00
2022-10-18T03:19:09.305Z,100.00
2022-10-18T03:21:38.486Z,100.00
2022-10-18T03:24:07.374Z,100.00
2022-10-18T03:26:35.242Z,100.00
2022-10-18T03:29:03.084Z,100.00
2022-10-18T03:34:04.156Z,100.00
2022-10-18T03:36:33.746Z,100.00
2022-10-18T03:39:02.929Z,100.00
2022-10-18T03:41:30.912Z,100.00
2022-10-18T03:43:58.696Z,100.00
2022-10-18T03:46:26.957Z,100.00
2022-10-18T03:48:54.646Z,100.00
2022-10-18T03:51:22.627Z,100.00
2022-10-18T03:53:50.453Z,100.00
2022-10-18T03:56:19.682Z,100.00
2022-10-18T03:58:47.481Z,100.00
2022-10-18T04:01:15.383Z,100.00
2022-10-18T04:03:43.087Z,100.00
2022-10-18T04:06:11.233Z,100.00
2022-10-18T04:08:38.979Z,100.00
2022-10-18T04:11:09.753Z,100.00
2022-10-18T04:13:39.101Z,100.00
2022-10-18T04:16:07.297Z,100.00
2022-10-18T04:18:35.097Z,100.00
2022-10-18T04:21:03.082Z,100.00
2022-10-18T04:23:32.809Z,100.00
2022-10-18T04:26:04.557Z,100.00
2022-10-18T04:28:32.285Z,100.00
2022-10-18T04:31:01.817Z,100.00
2022-10-18T04:33:29.650Z,100.00
2022-10-18T04:35:57.524Z,100.00
2022-10-18T04:38:25.284Z,100.00
2022-10-18T04:40:53.302Z,100.00
2022-10-18T04:43:21.128Z,100.00
2022-10-18T04:45:51.046Z,100.00
2022-10-18T04:48:21.141Z,100.00
2022-10-18T04:50:49.727Z,100.00
2022-10-18T04:53:18.775Z,100.00
2022-10-18T04:55:48.841Z,100.00
2022-10-18T04:58:16.670Z,100.00
2022-10-18T05:00:44.784Z,100.00
2022-10-18T05:03:14.170Z,100.00
2022-10-18T05:06:03.132Z,100.00
2022-10-18T05:08:32.725Z,100.00
2022-10-18T05:11:01.075Z,100.00
2022-10-18T05:13:28.886Z,100.00
2022-10-18T05:15:59.305Z,100.00
2022-10-18T05:18:27.329Z,100.00
2022-10-18T05:20:56.651Z,100.00
2022-10-18T05:23:25.265Z,100.00
2022-10-18T05:25:53.141Z,100.00
2022-10-18T05:28:38.564Z,100.00
2022-10-18T05:31:09.533Z,100.00
2022-10-18T05:33:38.070Z,100.00
2022-10-18T05:36:08.074Z,100.00
2022-10-18T05:41:08.768Z,100.00
2022-10-18T05:43:36.689Z,100.00
2022-10-18T05:46:06.470Z,100.00
2022-10-18T05:48:35.967Z,100.00
2022-10-18T05:51:03.905Z,100.00
2022-10-18T05:53:37.584Z,100.00
2022-10-18T05:56:07.070Z,100.00
2022-10-18T05:58:35.179Z,100.00
2022-10-18T06:01:03.986Z,100.00
2022-10-18T06:03:32.415Z,100.00
2022-10-18T06:06:01.371Z,100.00
2022-10-18T06:08:29.144Z,100.00
2022-10-18T06:10:58.413Z,100.00
2022-10-18T06:13:26.253Z,100.00
2022-10-18T06:15:56.890Z,100.00
2022-10-18T06:18:24.682Z,100.00
2022-10-18T06:20:57.954Z,100.00
2022-10-18T06:23:25.885Z,100.00
2022-10-18T06:25:53.951Z,100.00
2022-10-18T06:28:23.013Z,100.00
2022-10-18T06:30:50.887Z,100.00
2022-10-18T06:33:18.885Z,100.00
2022-10-18T06:35:55.412Z,100.00
2022-10-18T06:38:23.356Z,100.00
2022-10-18T06:40:51.522Z,100.00
2022-10-18T06:43:21.478Z,100.00
2022-10-18T06:45:51.460Z,100.00
2022-10-18T06:50:56.743Z,100.00
2022-10-18T06:53:24.831Z,100.00
2022-10-18T06:55:53.008Z,100.00
2022-10-18T06:58:20.841Z,100.00
2022-10-18T07:00:48.700Z,100.00
2022-10-18T07:03:17.720Z,100.00
2022-10-18T07:05:45.735Z,100.00
2022-10-18T07:08:13.560Z,100.00
2022-10-18T07:10:41.518Z,100.00
2022-10-18T07:16:02.274Z,100.00
2022-10-18T07:18:31.598Z,100.00
2022-10-18T07:21:02.392Z,100.00
2022-10-18T07:23:30.168Z,100.00
2022-10-18T07:25:58.193Z,100.00
2022-10-18T07:28:26.440Z,100.00
2022-10-18T07:30:54.488Z,100.00
2022-10-18T07:33:23.165Z,100.00
2022-10-18T07:35:52.415Z,100.00
2022-10-18T07:38:20.346Z,100.00
2022-10-18T07:40:48.364Z,100.00
2022-10-18T07:43:16.090Z,100.00
2022-10-18T07:45:52.798Z,100.00
2022-10-18T07:48:20.653Z,100.00
2022-10-18T07:50:48.737Z,100.00
2022-10-18T07:53:17.852Z,100.00
2022-10-18T07:55:46.258Z,100.00
2022-10-18T07:58:13.958Z,100.00
2022-10-18T08:00:41.839Z,100.00
2022-10-18T08:03:09.725Z,100.00
2022-10-18T08:05:37.611Z,100.00
2022-10-18T08:08:07.971Z,100.00
2022-10-18T08:10:37.730Z,100.00
2022-10-18T08:13:05.413Z,100.00
2022-10-18T08:15:33.505Z,100.00
2022-10-18T08:18:01.605Z,100.00
2022-10-18T08:20:31.369Z,100.00
2022-10-18T08:23:00.665Z,100.00
2022-10-18T08:25:29.596Z,100.00
2022-10-18T08:27:58.906Z,100.00
2022-10-18T08:30:26.798Z,100.00
2022-10-18T08:32:54.599Z,100.00
2022-10-18T08:35:22.751Z,100.00
2022-10-18T08:37:51.197Z,100.00
2022-10-18T08:40:20.264Z,100.00
2022-10-18T08:43:08.080Z,100.00
2022-10-18T08:45:42.994Z,100.00
2022-10-18T08:48:21.790Z,100.00
2022-10-18T08:50:52.137Z,100.00
2022-10-18T08:53:28.610Z,100.00
2022-10-18T08:56:03.666Z,100.00
2022-10-18T08:58:34.298Z,100.00
2022-10-18T09:01:13.896Z,100.00
2022-10-18T09:04:01.984Z,100.00
2022-10-18T09:06:36.038Z,100.00
2022-10-18T09:09:23.624Z,100.00
2022-10-18T09:12:02.201Z,100.00
2022-10-18T09:14:49.849Z,100.00
2022-10-18T09:17:29.034Z,100.00
2022-10-18T09:20:17.574Z,100.00
2022-10-18T09:22:53.540Z,100.00
2022-10-18T09:25:23.622Z,100.00
2022-10-18T09:27:57.270Z,100.00
2022-10-18T09:30:40.610Z,100.00
2022-10-18T09:33:31.698Z,100.00
2022-10-18T09:36:02.794Z,100.00
2022-10-18T09:38:33.360Z,99.11
2022-10-18T09:41:05.501Z,98.67
2022-10-18T09:43:48.198Z,96.15
2022-10-18T09:46:19.338Z,95.21
2022-10-18T09:48:52.290Z,95.16
2022-10-18T09:51:22.748Z,96.58
2022-10-18T09:54:03.412Z,93.95
2022-10-18T09:56:37.861Z,92.58
2022-10-18T09:59:29.762Z,91.46
2022-10-18T10:01:58.912Z,88.87
2022-10-18T10:04:27.009Z,87.50
2022-10-18T10:06:56.781Z,84.50
2022-10-18T10:09:29.353Z,83.30
2022-10-18T10:11:58.163Z,79.88
2022-10-18T10:14:27.747Z,82.47
2022-10-18T10:16:57.705Z,81.48
2022-10-18T10:19:33.205Z,78.36
2022-10-18T10:22:05.849Z,76.15
2022-10-18T10:24:40.813Z,78.14
2022-10-18T10:27:18.073Z,79.54
2022-10-18T10:29:53.825Z,79.12
2022-10-18T10:32:23.482Z,82.59
2022-10-18T10:34:53.433Z,76.23
2022-10-18T10:37:32.949Z,77.24
2022-10-18T10:40:18.168Z,76.77
2022-10-18T10:43:08.897Z,73.98
2022-10-18T10:46:02.862Z,71.59
2022-10-18T10:48:33.918Z,70.16
2022-10-18T10:51:06.981Z,65.40
2022-10-18T10:53:50.037Z,65.38
2022-10-18T10:56:24.350Z,63.36
2022-10-18T10:58:53.353Z,58.39
2022-10-18T11:01:28.405Z,61.82
2022-10-18T11:03:58.727Z,60.25
2022-10-18T11:06:36.810Z,57.19
2022-10-18T11:09:12.729Z,58.36
2022-10-18T11:11:46.826Z,56.30
2022-10-18T11:14:26.546Z,55.83
2022-10-18T11:17:07.733Z,58.05
2022-10-18T11:19:43.674Z,55.71
2022-10-18T11:22:19.805Z,58.09
2022-10-18T11:24:47.911Z,59.99
2022-10-18T11:27:23.908Z,58.81
2022-10-18T11:30:26.210Z,61.61
2022-10-18T11:33:02.770Z,59.95
2022-10-18T11:35:40.457Z,61.54
2022-10-18T11:38:23.600Z,61.45
2022-10-18T11:41:07.557Z,62.46
2022-10-18T11:44:01.733Z,63.56
2022-10-18T11:46:52.593Z,64.73
2022-10-18T11:49:34.606Z,62.61
2022-10-18T11:52:14.396Z,63.07
2022-10-18T11:55:07.216Z,65.55
2022-10-18T11:57:45.633Z,63.84
2022-10-18T12:00:28.602Z,61.58
2022-10-18T12:03:35.235Z,64.25
2022-10-18T12:06:06.959Z,61.21
2022-10-18T12:08:38.430Z,60.62
2022-10-18T12:11:13.712Z,59.61
2022-10-18T12:13:47.408Z,63.36
2022-10-18T12:16:16.696Z,64.97
2022-10-18T12:21:29.985Z,63.08
2022-10-18T12:24:02.139Z,66.52
2022-10-18T12:26:33.109Z,68.71
2022-10-18T12:29:14.102Z,67.57
2022-10-18T12:31:46.245Z,66.10
2022-10-18T12:34:24.039Z,64.64
2022-10-18T12:37:17.033Z,66.62
2022-10-18T12:42:44.158Z,66.98
2022-10-18T12:45:26.407Z,66.58
2022-10-18T12:47:55.075Z,64.61
2022-10-18T12:50:31.537Z,66.10
2022-10-18T12:53:06.157Z,65.14
2022-10-18T12:55:37.651Z,66.49
2022-10-18T12:58:27.564Z,68.13
2022-10-18T13:01:01.887Z,67.99
2022-10-18T13:03:40.077Z,67.52
2022-10-18T13:06:08.544Z,68.77
2022-10-18T13:08:42.738Z,69.30
2022-10-18T13:11:30.213Z,67.51
2022-10-18T13:14:29.250Z,65.71
2022-10-18T13:17:04.393Z,64.75
2022-10-18T13:19:39.945Z,65.59
2022-10-18T13:22:29.658Z,65.96
2022-10-18T13:25:04.217Z,63.09
2022-10-18T13:27:45.606Z,63.76
2022-10-18T13:30:28.562Z,64.24
2022-10-18T13:33:06.392Z,65.58
2022-10-18T13:35:59.861Z,66.08
2022-10-18T13:38:37.288Z,64.86
2022-10-18T13:41:08.333Z,64.37
2022-10-18T13:43:56.897Z,63.97
2022-10-18T13:46:51.298Z,64.34
2022-10-18T13:49:32.809Z,64.02
2022-10-18T13:52:09.923Z,64.04
2022-10-18T13:55:05.603Z,63.93
2022-10-18T13:57:49.053Z,63.62
2022-10-18T14:00:33.725Z,64.63
2022-10-18T14:03:44.026Z,63.37
2022-10-18T14:06:11.822Z,62.89
2022-10-18T14:08:45.621Z,62.79
2022-10-18T14:11:25.312Z,64.07
2022-10-18T14:13:56.877Z,64.07
2022-10-18T14:16:31.877Z,63.70
2022-10-18T14:19:09.542Z,62.16
2022-10-18T14:21:42.957Z,62.84
2022-10-18T14:24:19.922Z,63.51
2022-10-18T14:26:48.366Z,63.24
2022-10-18T14:29:19.996Z,63.89
2022-10-18T14:31:54.565Z,64.57
2022-10-18T14:34:23.145Z,65.23
2022-10-18T14:36:52.742Z,64.16
2022-10-18T14:39:23.205Z,65.95
2022-10-18T14:41:52.829Z,66.60
2022-10-18T14:44:22.956Z,65.93
2022-10-18T14:46:52.232Z,64.70
2022-10-18T14:49:21.435Z,65.48
2022-10-18T14:51:53.799Z,66.50
2022-10-18T14:54:29.146Z,67.60
2022-10-18T14:57:00.389Z,68.77
2022-10-18T14:59:30.808Z,70.56
2022-10-18T15:02:01.182Z,71.01
2022-10-18T15:04:32.865Z,71.91
2022-10-18T15:07:05.050Z,71.78
2022-10-18T15:09:35.850Z,72.29
2022-10-18T15:12:06.010Z,71.96
2022-10-18T15:14:35.445Z,70.99
2022-10-18T15:17:08.386Z,71.20
2022-10-18T15:19:39.256Z,71.15
2022-10-18T15:25:15.731Z,74.13
2022-10-18T15:27:46.172Z,75.56
2022-10-18T15:30:19.260Z,75.93
2022-10-18T15:32:52.770Z,77.06
2022-10-18T15:35:26.417Z,78.29
2022-10-18T15:37:57.884Z,78.80
2022-10-18T15:40:35.257Z,79.20
2022-10-18T15:43:06.599Z,79.87
2022-10-18T15:45:38.859Z,79.70
2022-10-18T15:48:21.509Z,80.17
2022-10-18T15:50:51.239Z,79.89
2022-10-18T15:53:46.091Z,80.57
2022-10-18T15:56:33.712Z,80.50
2022-10-18T15:59:04.520Z,81.21
2022-10-18T16:01:43.476Z,81.33
2022-10-18T16:04:19.472Z,81.58
2022-10-18T16:06:47.577Z,80.95
2022-10-18T16:09:20.153Z,80.62
2022-10-18T16:11:54.267Z,80.13
2022-10-18T16:14:24.238Z,80.21
2022-10-18T16:16:56.676Z,80.37
2022-10-18T16:19:24.930Z,80.53
2022-10-18T16:21:54.737Z,81.05
2022-10-18T16:24:24.322Z,80.99
2022-10-18T16:26:53.101Z,81.90
2022-10-18T16:29:25.869Z,81.71
2022-10-18T16:31:57.830Z,81.73
2022-10-18T16:34:26.976Z,82.55
2022-10-18T16:36:55.845Z,82.57
2022-10-18T16:39:25.426Z,82.91
2022-10-18T16:41:53.475Z,83.56
2022-10-18T16:44:21.316Z,85.22
2022-10-18T16:46:52.387Z,84.65
2022-10-18T16:49:25.425Z,85.02
2022-10-18T16:51:54.484Z,86.08
2022-10-18T16:54:22.782Z,84.47
2022-10-18T16:56:52.491Z,85.70
2022-10-18T16:59:24.598Z,86.81
2022-10-18T17:01:53.370Z,84.04
2022-10-18T17:04:21.112Z,81.96
2022-10-18T17:06:49.093Z,79.06
2022-10-18T17:09:17.478Z,77.02
2022-10-18T17:11:45.491Z,75.72
2022-10-18T17:14:14.564Z,75.26
2022-10-18T17:16:45.431Z,74.82
2022-10-18T17:19:16.024Z,74.04
2022-10-18T17:21:44.366Z,73.10
2022-10-18T17:24:12.154Z,72.77
2022-10-18T17:26:40.027Z,73.73
2022-10-18T17:29:09.101Z,74.60
2022-10-18T17:31:38.347Z,74.98
2022-10-18T17:34:06.265Z,75.54
2022-10-18T17:36:34.929Z,74.90
2022-10-18T17:39:02.782Z,74.36
2022-10-18T17:41:31.321Z,74.68
2022-10-18T17:43:59.606Z,75.73
2022-10-18T17:46:27.864Z,76.17
2022-10-18T17:48:56.979Z,76.61
2022-10-18T17:51:25.274Z,78.30
2022-10-18T17:53:52.945Z,79.57
2022-10-18T17:56:20.856Z,80.61
2022-10-18T17:58:51.738Z,81.66
2022-10-18T18:01:22.004Z,84.35
2022-10-18T18:03:50.424Z,86.41
2022-10-18T18:06:21.541Z,87.08
2022-10-18T18:08:50.700Z,88.40
2022-10-18T18:11:19.468Z,89.43
2022-10-18T18:13:47.422Z,88.68
2022-10-18T18:16:17.763Z,88.42
2022-10-18T18:18:46.756Z,88.40
2022-10-18T18:21:14.813Z,88.46
2022-10-18T18:23:44.373Z,88.15
2022-10-18T18:26:12.508Z,87.68
2022-10-18T18:28:40.442Z,87.76
2022-10-18T18:31:09.614Z,88.51
2022-10-18T18:33:38.264Z,88.25
2022-10-18T18:36:07.285Z,87.85
2022-10-18T18:38:36.518Z,88.88
2022-10-18T18:41:08.605Z,93.29
2022-10-18T18:43:37.212Z,94.83
2022-10-18T18:46:06.066Z,96.93
2022-10-18T18:48:34.775Z,97.50
2022-10-18T18:51:03.295Z,96.04
2022-10-18T18:53:31.673Z,97.09
2022-10-18T18:56:04.131Z,97.17
2022-10-18T18:58:35.559Z,97.85
2022-10-18T19:01:08.496Z,97.86
2022-10-18T19:03:38.291Z,99.15
2022-10-18T19:06:07.567Z,96.86
2022-10-18T19:08:36.454Z,98.99
2022-10-18T19:11:08.183Z,97.46
2022-10-18T19:13:38.346Z,97.94
2022-10-18T19:16:23.136Z,97.64
2022-10-18T19:18:52.926Z,97.70
2022-10-18T19:21:21.970Z,97.79
2022-10-18T19:23:50.283Z,99.43
2022-10-18T19:26:29.609Z,100.00
2022-10-18T19:29:05.329Z,100.00
2022-10-18T19:31:34.890Z,100.00
2022-10-18T19:34:03.978Z,100.00
2022-10-18T19:36:32.187Z,100.00
2022-10-18T19:39:00.120Z,100.00
2022-10-18T19:41:29.170Z,100.00
2022-10-18T19:43:57.387Z,100.00
2022-10-18T19:46:26.901Z,100.00
2022-10-18T19:48:54.874Z,100.00
2022-10-18T19:51:27.074Z,100.00
2022-10-18T19:53:56.525Z,100.00
2022-10-18T19:56:25.630Z,100.00
2022-10-18T19:58:53.957Z,100.00
2022-10-18T20:01:22.691Z,100.00
2022-10-18T20:03:52.053Z,100.00
2022-10-18T20:06:20.670Z,100.00
2022-10-18T20:08:49.149Z,100.00
2022-10-18T20:11:20.429Z,100.00
2022-10-18T20:13:48.199Z,100.00
2022-10-18T20:16:18.199Z,100.00
2022-10-18T20:18:46.473Z,100.00
2022-10-18T20:21:17.970Z,100.00
2022-10-18T20:23:45.767Z,100.00
2022-10-18T20:26:19.647Z,100.00
2022-10-18T20:28:56.115Z,100.00
2022-10-18T20:31:26.247Z,100.00
2022-10-18T20:33:56.012Z,100.00
2022-10-18T20:36:26.065Z,100.00
2022-10-18T20:38:54.824Z,100.00
2022-10-18T20:41:24.833Z,100.00
2022-10-18T20:43:53.548Z,100.00
2022-10-18T20:46:22.232Z,100.00
2022-10-18T20:48:50.429Z,100.00
2022-10-18T20:51:18.864Z,100.00
2022-10-18T20:53:48.274Z,100.00
2022-10-18T20:56:20.108Z,100.00
2022-10-18T20:58:49.458Z,100.00
2022-10-18T21:01:19.538Z,100.00
2022-10-18T21:03:49.017Z,100.00
2022-10-18T21:06:18.881Z,100.00
2022-10-18T21:08:52.749Z,100.00
2022-10-18T21:11:20.832Z,100.00
2022-10-18T21:13:51.417Z,100.00
2022-10-18T21:16:19.404Z,100.00
2022-10-18T21:18:47.472Z,100.00
2022-10-18T21:21:17.643Z,100.00
2022-10-18T21:23:46.034Z,100.00
2022-10-18T21:26:17.249Z,100.00
2022-10-18T21:28:44.998Z,100.00
2022-10-18T21:31:15.842Z,100.00
2022-10-18T21:33:44.582Z,100.00
2022-10-18T21:36:13.248Z,100.00
2022-10-18T21:38:44.151Z,100.00
2022-10-18T21:41:13.986Z,100.00
2022-10-18T21:43:45.150Z,100.00
2022-10-18T21:46:14.641Z,100.00
2022-10-18T21:48:45.090Z,100.00
2022-10-18T21:51:14.881Z,100.00
2022-10-18T21:53:43.704Z,100.00
2022-10-18T21:56:13.725Z,100.00
2022-10-18T21:58:43.871Z,100.00
2022-10-18T22:01:14.054Z,100.00
2022-10-18T22:03:42.454Z,100.00
2022-10-18T22:06:14.625Z,100.00
2022-10-18T22:08:43.052Z,100.00
2022-10-18T22:11:12.494Z,100.00
2022-10-18T22:13:40.826Z,100.00
2022-10-18T22:16:14.247Z,100.00
2022-10-18T22:18:42.317Z,100.00
2022-10-18T22:21:12.433Z,100.00
2022-10-18T22:23:41.856Z,100.00
2022-10-18T22:26:13.133Z,100.00
2022-10-18T22:28:42.629Z,100.00
2022-10-18T22:31:16.950Z,100.00
2022-10-18T22:33:45.274Z,100.00
2022-10-18T22:36:13.817Z,100.00
2022-10-18T22:38:41.542Z,100.00
2022-10-18T22:41:11.691Z,100.00
2022-10-18T22:43:40.020Z,100.00
2022-10-18T22:46:10.138Z,100.00
2022-10-18T22:48:39.849Z,100.00
2022-10-18T22:51:08.119Z,100.00
2022-10-18T22:53:36.877Z,100.00
2022-10-18T22:56:06.172Z,100.00
2022-10-18T22:58:34.066Z,100.00
2022-10-18T23:01:03.090Z,100.00
2022-10-18T23:03:31.000Z,100.00
2022-10-18T23:06:00.507Z,100.00
2022-10-18T23:08:28.878Z,100.00
2022-10-18T23:10:59.673Z,100.00
2022-10-18T23:13:28.454Z,100.00
2022-10-18T23:16:04.459Z,100.00
2022-10-18T23:18:33.731Z,100.00
2022-10-18T23:21:04.816Z,100.00
2022-10-18T23:23:35.380Z,100.00
2022-10-18T23:26:05.190Z,100.00
2022-10-18T23:28:35.510Z,100.00
2022-10-18T23:31:08.795Z,100.00
2022-10-18T23:33:37.046Z,100.00
2022-10-18T23:36:08.349Z,100.00
2022-10-18T23:38:37.081Z,100.00
2022-10-18T23:41:05.411Z,100.00
2022-10-18T23:43:33.218Z,100.00
2022-10-18T23:46:01.603Z,100.00
2022-10-18T23:48:29.592Z,100.00
2022-10-18T23:50:57.746Z,100.00
2022-10-18T23:53:26.943Z,100.00
2022-10-18T23:55:56.132Z,100.00
2022-10-18T23:58:24.483Z,100.00
